Time;durP1;ratioP1;P1;durP2;ratioP2;P2;SDS_P1;SDS_P2;PMS_P1;PMS_P2;Temp;Humidity;BMP_temperature;BMP_pressure;BME280_temperature;BME280_humidity;BME280_pressure;Samples;Min_cycle;Max_cycle;Signal;HPM_P1;HPM_P2
2023/04/04 00:01:24;;;;;;;6.38;3.15;;;4.10;99.90;;;;;;4957868;28;20042;-75
2023/04/04 00:03:50;;;;;;;6.85;3.10;;;4.10;99.90;;;;;;4974378;28;20049;-75
2023/04/04 00:06:19;;;;;;;7.47;3.10;;;4.10;99.90;;;;;;4956598;28;20044;-75
2023/04/04 00:08:46;;;;;;;6.20;3.20;;;4.00;99.90;;;;;;4954426;28;20058;-75
2023/04/04 00:11:12;;;;;;;7.78;3.40;;;4.10;99.90;;;;;;4976295;28;20035;-75
2023/04/04 00:13:38;;;;;;;8.52;3.45;;;4.00;99.90;;;;;;4973935;28;20515;-75
2023/04/04 00:16:04;;;;;;;7.15;3.55;;;4.00;99.90;;;;;;4987834;28;20042;-75
2023/04/04 00:18:31;;;;;;;8.93;3.42;;;4.00;99.90;;;;;;4955304;28;20046;-75
2023/04/04 00:20:57;;;;;;;6.55;3.10;;;4.00;99.90;;;;;;4962335;28;20073;-75
2023/04/04 00:23:23;;;;;;;10.82;3.45;;;3.90;99.90;;;;;;4972450;28;20065;-75
2023/04/04 00:25:52;;;;;;;6.88;3.42;;;3.90;99.90;;;;;;4994877;28;20128;-75
2023/04/04 00:28:21;;;;;;;7.30;3.35;;;4.50;99.90;;;;;;4983396;28;20042;-75
2023/04/04 00:30:47;;;;;;;6.35;3.47;;;3.80;99.90;;;;;;4954517;28;20079;-75
2023/04/04 00:33:13;;;;;;;8.90;3.75;;;3.80;99.90;;;;;;4976380;28;20565;-75
2023/04/04 00:35:39;;;;;;;8.82;3.35;;;3.80;99.90;;;;;;4963473;28;20042;-75
2023/04/04 00:38:05;;;;;;;9.57;3.97;;;3.60;99.90;;;;;;4965277;28;20038;-75
2023/04/04 00:40:30;;;;;;;7.07;3.40;;;3.70;99.90;;;;;;4960238;28;20050;-75
2023/04/04 00:42:59;;;;;;;6.93;3.45;;;3.70;99.90;;;;;;4972147;28;20046;-75
2023/04/04 00:45:26;;;;;;;8.60;3.50;;;3.70;99.90;;;;;;4976359;28;20539;-75
2023/04/04 00:47:53;;;;;;;11.43;3.92;;;3.70;99.90;;;;;;4978315;28;20073;-76
2023/04/04 00:50:19;;;;;;;8.98;3.72;;;3.70;99.90;;;;;;4960278;28;20088;-75
2023/04/04 00:52:45;;;;;;;8.75;3.60;;;3.50;99.90;;;;;;4959743;28;20038;-75
2023/04/04 00:55:10;;;;;;;11.27;4.07;;;3.70;99.90;;;;;;4981006;28;20046;-75
2023/04/04 00:57:36;;;;;;;8.43;3.45;;;4.90;99.90;;;;;;4993978;28;20034;-75
2023/04/04 01:00:05;;;;;;;9.20;3.70;;;3.50;99.90;;;;;;4960856;28;20059;-75
2023/04/04 01:02:30;;;;;;;9.27;4.00;;;3.60;99.90;;;;;;4993923;28;20742;-75
2023/04/04 01:04:56;;;;;;;10.93;4.03;;;4.70;99.90;;;;;;4961135;28;20034;-75
2023/04/04 01:07:22;;;;;;;7.63;3.83;;;3.50;99.90;;;;;;4959435;28;20039;-75
2023/04/04 01:09:49;;;;;;;7.57;3.90;;;3.40;99.90;;;;;;4977132;28;20042;-76
2023/04/04 01:12:15;;;;;;;10.02;3.53;;;4.70;99.90;;;;;;4965625;28;20042;-75
2023/04/04 01:14:40;;;;;;;5.70;3.25;;;5.30;99.90;;;;;;4976039;28;20051;-75
2023/04/04 01:17:06;;;;;;;7.80;3.80;;;3.40;99.90;;;;;;4956923;28;20038;-75
2023/04/04 01:19:42;;;;;;;8.40;3.90;;;3.40;99.90;;;;;;4976660;28;20046;-75
2023/04/04 01:22:10;;;;;;;9.98;4.10;;;3.50;99.90;;;;;;4975525;28;20049;-75
2023/04/04 01:24:38;;;;;;;7.90;3.88;;;3.50;99.90;;;;;;4984236;28;20046;-75
2023/04/04 01:27:03;;;;;;;7.68;4.00;;;3.50;99.90;;;;;;4976649;28;20193;-75
2023/04/04 01:29:29;;;;;;;7.97;3.75;;;3.40;99.90;;;;;;4979315;28;20125;-75
2023/04/04 01:32:11;;;;;;;8.00;3.90;;;3.30;99.90;;;;;;4973334;28;20057;-75
2023/04/04 01:35:12;;;;;;;7.30;3.92;;;3.40;99.90;;;;;;4976610;28;20074;-75
2023/04/04 01:37:49;;;;;;;8.50;4.05;;;3.40;99.90;;;;;;4964670;28;20120;-75
2023/04/04 01:40:22;;;;;;;9.82;4.05;;;3.40;99.90;;;;;;4975526;28;20392;-75
2023/04/04 01:42:50;;;;;;;9.43;4.20;;;3.30;99.90;;;;;;4957961;28;20409;-75
2023/04/04 01:45:15;;;;;;;9.82;4.68;;;3.30;99.90;;;;;;4977702;28;20049;-75
2023/04/04 01:47:42;;;;;;;9.57;3.97;;;3.30;99.90;;;;;;4972799;28;20043;-75
2023/04/04 01:50:09;;;;;;;7.60;3.90;;;3.30;99.90;;;;;;4976528;28;20049;-75
2023/04/04 01:52:35;;;;;;;7.80;3.88;;;3.20;99.90;;;;;;4975182;28;20046;-76
2023/04/04 01:55:02;;;;;;;6.47;3.95;;;3.20;99.90;;;;;;4976597;28;20456;-75
2023/04/04 01:57:28;;;;;;;8.07;3.63;;;3.20;99.90;;;;;;4960035;28;20502;-75
2023/04/04 01:59:54;;;;;;;7.68;4.32;;;3.10;99.90;;;;;;4960027;28;20038;-75
2023/04/04 02:02:20;;;;;;;9.27;4.20;;;3.10;99.90;;;;;;4991769;28;20088;-75
2023/04/04 02:04:46;;;;;;;8.05;4.13;;;3.10;99.90;;;;;;4959835;28;20106;-75
2023/04/04 02:07:12;;;;;;;8.15;4.22;;;3.10;99.90;;;;;;4976163;28;20042;-75
2023/04/04 02:09:37;;;;;;;10.25;4.03;;;3.10;99.90;;;;;;4989879;28;20158;-75
2023/04/04 02:12:03;;;;;;;7.05;3.70;;;3.10;99.90;;;;;;4958978;28;20042;-75
2023/04/04 02:14:29;;;;;;;10.48;4.18;;;3.10;99.90;;;;;;4975515;28;20526;-75
2023/04/04 02:16:55;;;;;;;6.47;3.38;;;2.90;99.90;;;;;;4975569;28;20074;-75
2023/04/04 02:19:20;;;;;;;6.32;3.80;;;3.00;99.90;;;;;;4959595;28;20399;-75
2023/04/04 02:21:46;;;;;;;7.55;4.18;;;3.90;99.90;;;;;;4957842;28;20395;-75
2023/04/04 02:24:12;;;;;;;10.40;4.60;;;3.00;99.90;;;;;;4993596;28;20061;-75
2023/04/04 02:26:37;;;;;;;9.57;3.95;;;2.90;99.90;;;;;;4972907;28;20046;-75
2023/04/04 02:29:03;;;;;;;8.40;3.83;;;2.90;99.90;;;;;;4979425;28;20066;-76
2023/04/04 02:31:29;;;;;;;10.13;4.40;;;2.70;99.90;;;;;;4973920;28;20064;-75
2023/04/04 02:33:55;;;;;;;8.15;3.75;;;2.70;99.90;;;;;;4972510;28;20108;-75
2023/04/04 02:36:21;;;;;;;9.23;4.18;;;2.90;99.90;;;;;;4959462;28;20093;-75
2023/04/04 02:38:46;;;;;;;7.88;4.15;;;2.90;99.90;;;;;;4993073;28;20042;-75
2023/04/04 02:41:12;;;;;;;8.68;4.47;;;2.90;99.90;;;;;;4954774;28;20034;-75
2023/04/04 02:43:37;;;;;;;7.97;4.43;;;2.70;99.90;;;;;;4977564;28;20030;-75
2023/04/04 02:46:03;;;;;;;10.02;3.95;;;2.80;99.90;;;;;;4958347;28;20525;-75
2023/04/04 02:48:28;;;;;;;9.40;3.95;;;4.30;99.90;;;;;;4976218;28;20087;-75
2023/04/04 02:50:54;;;;;;;7.47;3.72;;;2.60;99.90;;;;;;4970637;28;20529;-75
2023/04/04 02:53:20;;;;;;;8.93;4.00;;;2.70;99.90;;;;;;4968851;28;20073;-75
2023/04/04 02:55:46;;;;;;;8.23;3.85;;;2.80;99.90;;;;;;4978642;28;20121;-75
2023/04/04 02:58:11;;;;;;;8.18;4.03;;;2.80;99.90;;;;;;4974683;28;20038;-75
2023/04/04 03:00:37;;;;;;;7.05;3.92;;;2.70;99.90;;;;;;4981846;28;20062;-75
2023/04/04 03:03:02;;;;;;;7.55;4.18;;;2.80;99.90;;;;;;4974917;28;20030;-75
2023/04/04 03:05:29;;;;;;;7.80;3.70;;;2.70;99.90;;;;;;4974759;28;20065;-76
2023/04/04 03:07:56;;;;;;;8.70;3.97;;;2.70;99.90;;;;;;4971642;28;20049;-76
2023/04/04 03:10:22;;;;;;;8.90;3.80;;;2.70;99.90;;;;;;4952365;28;20129;-76
2023/04/04 03:12:48;;;;;;;8.88;3.92;;;2.70;99.90;;;;;;4998443;28;20113;-75
2023/04/04 03:15:14;;;;;;;7.90;3.85;;;2.70;99.90;;;;;;4966063;28;20447;-76
2023/04/04 03:17:40;;;;;;;8.73;3.95;;;3.00;99.90;;;;;;4973886;28;20494;-75
2023/04/04 03:20:06;;;;;;;8.32;4.05;;;2.40;99.90;;;;;;4974526;28;20081;-76
2023/04/04 03:22:31;;;;;;;8.13;4.25;;;2.60;99.90;;;;;;4973935;28;20042;-75
2023/04/04 03:24:57;;;;;;;7.88;3.85;;;2.60;99.90;;;;;;4955509;28;20034;-75
2023/04/04 03:27:22;;;;;;;8.60;4.05;;;2.40;99.90;;;;;;4973816;28;20034;-75
2023/04/04 03:29:48;;;;;;;8.50;4.43;;;2.60;99.90;;;;;;4982983;28;20495;-75
2023/04/04 03:32:14;;;;;;;9.15;4.40;;;2.50;99.90;;;;;;4991941;28;20046;-76
2023/04/04 03:34:39;;;;;;;9.88;3.88;;;2.60;99.90;;;;;;4955894;28;20093;-76
2023/04/04 03:37:05;;;;;;;9.23;4.10;;;1.90;99.90;;;;;;4992601;28;20034;-76
2023/04/04 03:39:31;;;;;;;8.07;4.15;;;2.40;99.90;;;;;;4989435;28;20042;-75
2023/04/04 03:41:59;;;;;;;8.38;4.18;;;2.30;99.90;;;;;;4967199;28;20074;-76
2023/04/04 03:44:25;;;;;;;10.05;4.05;;;2.30;99.90;;;;;;4990586;28;20399;-75
2023/04/04 03:46:50;;;;;;;10.55;3.88;;;2.40;99.90;;;;;;4991531;28;20026;-75
2023/04/04 03:49:16;;;;;;;7.85;3.65;;;2.40;99.90;;;;;;4977964;28;20065;-75
2023/04/04 03:51:42;;;;;;;9.43;3.97;;;2.40;99.90;;;;;;4992017;28;20038;-75
2023/04/04 03:54:07;;;;;;;7.97;4.05;;;2.30;99.90;;;;;;4988640;28;20034;-75
2023/04/04 03:56:33;;;;;;;8.18;4.03;;;2.30;99.90;;;;;;4973490;28;20411;-75
2023/04/04 03:58:59;;;;;;;8.20;4.20;;;2.30;99.90;;;;;;4956715;28;20121;-76
2023/04/04 04:01:24;;;;;;;11.70;4.20;;;2.30;99.90;;;;;;4974499;28;20043;-75
2023/04/04 04:03:50;;;;;;;7.03;4.00;;;3.50;99.90;;;;;;4989205;28;20038;-76
2023/04/04 04:06:16;;;;;;;6.88;4.00;;;2.20;99.90;;;;;;4986774;28;20039;-76
2023/04/04 04:08:41;;;;;;;6.90;3.83;;;2.20;99.90;;;;;;4973930;28;20117;-76
2023/04/04 04:11:07;;;;;;;7.15;3.88;;;2.20;99.90;;;;;;4991320;28;20120;-75
2023/04/04 04:13:36;;;;;;;8.25;3.97;;;2.20;99.90;;;;;;4987395;28;20062;-74
2023/04/04 04:16:02;;;;;;;10.02;4.10;;;2.20;99.90;;;;;;4971513;28;20042;-75
2023/04/04 04:18:27;;;;;;;8.35;4.25;;;2.10;99.90;;;;;;4971714;28;20391;-75
2023/04/04 04:21:00;;;;;;;7.60;3.90;;;2.10;99.90;;;;;;4990429;28;20129;-75
2023/04/04 04:23:26;;;;;;;10.15;4.07;;;2.10;99.90;;;;;;4953449;28;20495;-76
2023/04/04 04:25:51;;;;;;;8.73;3.78;;;2.20;99.90;;;;;;4973814;28;20101;-76
2023/04/04 04:28:20;;;;;;;9.30;4.13;;;2.10;99.90;;;;;;4957872;28;20100;-75
2023/04/04 04:30:45;;;;;;;10.07;4.07;;;2.10;99.90;;;;;;4978857;28;20080;-76
2023/04/04 04:33:13;;;;;;;9.13;3.65;;;2.00;99.90;;;;;;4977313;28;20045;-76
2023/04/04 04:35:39;;;;;;;9.85;4.32;;;1.90;99.90;;;;;;4983324;28;20410;-76
2023/04/04 04:38:05;;;;;;;9.32;4.10;;;2.00;99.90;;;;;;4973918;28;20166;-76
2023/04/04 04:40:32;;;;;;;6.47;3.63;;;1.80;99.90;;;;;;4954255;28;20151;-75
2023/04/04 04:42:58;;;;;;;11.68;4.03;;;2.00;99.90;;;;;;4973055;28;20113;-75
2023/04/04 04:45:24;;;;;;;8.32;3.80;;;1.90;99.90;;;;;;4963287;28;20390;-75
2023/04/04 04:47:50;;;;;;;9.73;4.05;;;2.00;99.90;;;;;;4969845;28;20410;-75
2023/04/04 04:50:16;;;;;;;6.10;3.78;;;1.70;99.90;;;;;;4970595;28;20093;-75
2023/04/04 04:52:42;;;;;;;7.90;4.00;;;2.30;99.90;;;;;;4968129;28;20059;-75
2023/04/04 04:55:09;;;;;;;6.88;4.10;;;1.80;99.90;;;;;;4972188;28;20050;-75
2023/04/04 04:57:35;;;;;;;10.10;3.85;;;1.80;99.90;;;;;;4972921;28;20073;-76
2023/04/04 05:00:03;;;;;;;6.70;4.32;;;1.80;99.90;;;;;;4952903;28;20084;-76
2023/04/04 05:02:28;;;;;;;10.75;4.55;;;1.80;99.90;;;;;;4957803;28;20053;-75
2023/04/04 05:04:54;;;;;;;8.90;4.72;;;1.70;99.90;;;;;;4975393;28;20038;-75
2023/04/04 05:07:20;;;;;;;7.90;4.40;;;1.70;99.90;;;;;;4975506;28;20122;-75
2023/04/04 05:09:45;;;;;;;9.10;4.07;;;3.10;99.90;;;;;;4976902;28;20043;-75
2023/04/04 05:12:11;;;;;;;10.73;4.85;;;1.60;99.90;;;;;;4991639;28;20108;-74
2023/04/04 05:14:37;;;;;;;8.82;4.47;;;1.50;99.90;;;;;;4987680;28;20046;-76
2023/04/04 05:17:06;;;;;;;9.77;4.18;;;1.70;99.90;;;;;;4958840;28;20506;-75
2023/04/04 05:19:31;;;;;;;10.32;4.72;;;1.70;99.90;;;;;;4975913;28;20081;-75
2023/04/04 05:21:57;;;;;;;9.52;4.53;;;1.50;99.90;;;;;;4960184;28;20078;-76
2023/04/04 05:24:22;;;;;;;9.60;4.70;;;1.70;99.90;;;;;;4959846;28;20319;-76
2023/04/04 05:26:48;;;;;;;9.95;4.72;;;1.70;99.90;;;;;;4992892;28;20045;-74
2023/04/04 05:29:14;;;;;;;8.88;4.22;;;1.90;99.90;;;;;;4989045;28;20042;-75
2023/04/04 05:31:40;;;;;;;9.57;4.63;;;1.70;99.90;;;;;;4974196;28;20046;-74
2023/04/04 05:34:08;;;;;;;7.85;4.47;;;1.70;99.90;;;;;;4993219;28;20119;-74
2023/04/04 05:36:35;;;;;;;9.40;4.57;;;1.70;99.90;;;;;;4949596;28;20038;-74
2023/04/04 05:39:01;;;;;;;10.32;4.82;;;1.60;99.90;;;;;;4972121;28;20038;-76
2023/04/04 05:41:27;;;;;;;10.35;4.63;;;1.60;99.90;;;;;;4972562;28;20050;-76
2023/04/04 05:43:52;;;;;;;10.05;5.00;;;1.60;99.90;;;;;;4957434;28;20607;-76
2023/04/04 05:46:18;;;;;;;13.15;4.82;;;1.50;99.90;;;;;;4936864;28;20038;-75
2023/04/04 05:48:44;;;;;;;11.50;4.57;;;1.60;99.90;;;;;;4959288;28;20034;-75
2023/04/04 05:51:10;;;;;;;9.77;4.85;;;1.70;99.90;;;;;;4960272;28;20125;-75
2023/04/04 05:53:35;;;;;;;12.05;4.70;;;1.80;99.90;;;;;;4990032;28;20061;-76
2023/04/04 05:56:02;;;;;;;11.45;4.70;;;3.20;99.90;;;;;;4965390;28;20049;-76
2023/04/04 05:58:28;;;;;;;9.77;4.43;;;2.90;99.90;;;;;;4952054;28;20046;-76
2023/04/04 06:00:53;;;;;;;7.07;4.00;;;3.40;99.90;;;;;;4973964;28;20062;-76
2023/04/04 06:03:21;;;;;;;8.00;4.63;;;3.60;99.90;;;;;;4959027;28;20464;-77
2023/04/04 06:05:51;;;;;;;9.32;4.20;;;1.90;99.90;;;;;;4984805;28;20402;-75
2023/04/04 06:08:17;;;;;;;8.30;4.50;;;1.80;99.90;;;;;;4959480;28;20042;-76
2023/04/04 06:10:43;;;;;;;9.75;4.68;;;1.60;99.90;;;;;;4962581;28;20510;-76
2023/04/04 06:13:11;;;;;;;6.70;3.85;;;3.00;99.90;;;;;;4968089;28;20092;-76
2023/04/04 06:15:59;;;;;;;9.27;3.83;;;2.20;99.90;;;;;;4959540;28;20050;-79
2023/04/04 06:18:25;;;;;;;11.07;4.22;;;2.20;99.90;;;;;;4959733;28;20278;-76
2023/04/04 06:20:50;;;;;;;10.40;3.95;;;2.20;99.90;;;;;;4958706;28;20038;-75
2023/04/04 06:23:16;;;;;;;6.50;3.70;;;2.20;99.90;;;;;;4996712;28;20034;-75
2023/04/04 06:25:41;;;;;;;9.35;4.32;;;2.10;99.90;;;;;;4957344;28;20052;-75
2023/04/04 06:28:08;;;;;;;8.55;4.13;;;2.30;99.90;;;;;;4953403;28;20037;-75
2023/04/04 06:30:36;;;;;;;9.02;3.92;;;2.40;99.90;;;;;;4980215;28;20042;-75
2023/04/04 06:33:05;;;;;;;8.18;3.97;;;2.40;99.90;;;;;;4976820;28;20046;-75
2023/04/04 06:35:31;;;;;;;10.18;4.13;;;2.30;99.90;;;;;;4975554;28;20093;-75
2023/04/04 06:37:57;;;;;;;7.68;4.07;;;2.30;99.90;;;;;;4981729;28;20038;-75
2023/04/04 06:40:23;;;;;;;9.23;3.70;;;2.50;99.90;;;;;;4978571;28;20073;-75
2023/04/04 06:42:50;;;;;;;7.78;4.07;;;2.50;99.90;;;;;;4958814;28;20077;-76
2023/04/04 06:45:16;;;;;;;8.13;3.90;;;2.50;99.90;;;;;;4959415;28;20039;-76
2023/04/04 06:47:42;;;;;;;7.38;3.45;;;2.50;99.90;;;;;;4962918;28;20081;-76
2023/04/04 06:50:09;;;;;;;11.05;4.20;;;2.60;99.90;;;;;;4992779;28;20092;-76
2023/04/04 06:52:35;;;;;;;8.15;3.97;;;2.60;99.90;;;;;;4996474;28;20038;-76
2023/04/04 06:55:00;;;;;;;10.70;4.18;;;2.60;99.90;;;;;;4958915;28;20038;-76
2023/04/04 06:57:26;;;;;;;7.63;3.90;;;2.50;99.90;;;;;;4972181;28;20379;-76
2023/04/04 06:59:52;;;;;;;8.85;4.05;;;2.50;99.90;;;;;;4956631;28;20072;-76
2023/04/04 07:02:18;;;;;;;10.27;4.57;;;2.60;99.90;;;;;;4971752;28;20399;-76
2023/04/04 07:04:44;;;;;;;7.32;3.88;;;4.00;99.90;;;;;;4978742;28;20038;-76
2023/04/04 07:07:11;;;;;;;9.88;4.00;;;4.20;99.90;;;;;;4992445;28;20042;-76
2023/04/04 07:09:36;;;;;;;10.23;4.15;;;2.60;99.90;;;;;;4975998;28;20089;-76
2023/04/04 07:12:02;;;;;;;9.15;4.30;;;2.60;99.90;;;;;;4996008;28;20129;-76
2023/04/04 07:14:28;;;;;;;11.23;3.90;;;2.80;99.90;;;;;;4975089;28;20510;-76
2023/04/04 07:16:53;;;;;;;9.02;3.60;;;2.70;99.90;;;;;;4960793;28;20182;-76
2023/04/04 07:19:22;;;;;;;7.25;3.78;;;2.80;99.90;;;;;;4980091;28;20406;-76
2023/04/04 07:21:48;;;;;;;9.15;3.58;;;4.30;99.90;;;;;;4960314;28;20057;-76
2023/04/04 07:24:13;;;;;;;9.40;3.20;;;3.00;99.90;;;;;;4982766;28;20034;-76
2023/04/04 07:26:39;;;;;;;7.30;3.80;;;3.10;99.90;;;;;;4994511;28;20046;-76
2023/04/04 07:29:05;;;;;;;7.38;3.58;;;3.20;99.90;;;;;;4977382;28;20412;-76
2023/04/04 07:31:31;;;;;;;7.10;3.42;;;3.20;99.90;;;;;;4992382;28;20317;-76
2023/04/04 07:33:56;;;;;;;8.68;3.83;;;3.10;99.90;;;;;;4997776;28;20034;-76
2023/04/04 07:36:22;;;;;;;8.23;3.75;;;3.10;99.90;;;;;;4978402;28;20034;-76
2023/04/04 07:38:48;;;;;;;10.80;3.85;;;3.30;99.90;;;;;;4975445;28;20064;-76
2023/04/04 07:41:13;;;;;;;8.70;3.10;;;3.30;99.90;;;;;;4995088;28;20121;-76
2023/04/04 07:43:39;;;;;;;10.88;3.20;;;3.10;99.90;;;;;;4971834;28;20100;-76
2023/04/04 07:46:05;;;;;;;8.02;3.15;;;3.40;99.90;;;;;;4971577;28;20041;-76
2023/04/04 07:48:30;;;;;;;6.85;3.25;;;3.30;99.90;;;;;;4979636;28;20034;-76
2023/04/04 07:50:56;;;;;;;9.45;2.88;;;3.30;99.90;;;;;;4993294;28;20069;-76
2023/04/04 07:53:22;;;;;;;10.15;3.30;;;3.30;99.90;;;;;;4974379;28;20041;-76
2023/04/04 07:55:47;;;;;;;7.05;3.42;;;3.80;99.90;;;;;;4992029;28;20065;-76
2023/04/04 07:58:13;;;;;;;7.70;3.20;;;3.30;99.90;;;;;;4974112;28;20057;-76
2023/04/04 08:00:39;;;;;;;8.07;3.70;;;3.40;99.90;;;;;;4985644;28;20057;-76
2023/04/04 08:03:07;;;;;;;8.75;3.30;;;3.60;99.90;;;;;;4974537;28;20042;-76
2023/04/04 08:05:33;;;;;;;8.48;3.75;;;3.50;99.90;;;;;;4996866;28;20045;-76
2023/04/04 08:07:59;;;;;;;7.07;3.55;;;3.60;99.90;;;;;;4991409;28;20042;-76
2023/04/04 08:10:24;;;;;;;9.98;3.70;;;3.60;99.90;;;;;;4976793;28;20994;-76
2023/04/04 08:12:50;;;;;;;6.18;3.33;;;3.80;99.90;;;;;;4958699;28;20034;-76
2023/04/04 08:15:16;;;;;;;7.05;2.90;;;3.60;99.90;;;;;;4991140;28;20038;-76
2023/04/04 08:17:44;;;;;;;8.93;3.40;;;4.80;99.90;;;;;;4974238;28;20045;-76
2023/04/04 08:20:10;;;;;;;8.18;3.13;;;3.70;99.90;;;;;;4958486;28;20062;-76
2023/04/04 08:22:36;;;;;;;8.45;3.28;;;3.80;99.90;;;;;;4975512;28;20073;-76
2023/04/04 08:25:02;;;;;;;6.25;3.28;;;3.70;99.90;;;;;;4980523;28;20065;-76
2023/04/04 08:27:27;;;;;;;7.80;3.45;;;4.00;99.90;;;;;;4991658;28;20046;-76
2023/04/04 08:29:53;;;;;;;7.50;3.40;;;3.90;99.90;;;;;;4992776;28;20504;-76
2023/04/04 08:32:18;;;;;;;7.88;3.22;;;3.90;99.90;;;;;;4957300;28;20053;-76
2023/04/04 08:34:44;;;;;;;8.77;3.30;;;3.90;99.90;;;;;;4993428;28;20034;-76
2023/04/04 08:37:10;;;;;;;7.65;3.60;;;4.00;99.90;;;;;;4969566;28;20125;-76
2023/04/04 08:39:35;;;;;;;7.00;2.97;;;5.60;99.90;;;;;;4975406;28;20050;-76
2023/04/04 08:42:06;;;;;;;6.75;3.05;;;4.10;99.90;;;;;;4989382;28;20085;-76
2023/04/04 08:44:36;;;;;;;7.20;2.85;;;4.40;99.90;;;;;;4974741;28;20035;-75
2023/04/04 08:47:08;;;;;;;8.73;2.70;;;5.50;99.90;;;;;;4994980;28;20058;-76
2023/04/04 08:49:37;;;;;;;8.32;2.92;;;4.50;99.90;;;;;;4961500;28;20042;-76
2023/04/04 08:52:05;;;;;;;7.63;2.95;;;4.50;99.90;;;;;;4983736;28;20049;-76
2023/04/04 08:54:32;;;;;;;6.57;3.10;;;4.60;99.90;;;;;;4980615;28;20100;-76
2023/04/04 08:56:57;;;;;;;7.38;3.15;;;4.80;99.90;;;;;;4986872;28;20046;-76
2023/04/04 08:59:23;;;;;;;6.70;2.90;;;5.10;99.90;;;;;;4980673;28;20486;-76
2023/04/04 09:01:51;;;;;;;7.00;3.00;;;5.70;99.90;;;;;;4954900;28;20049;-76
2023/04/04 09:04:20;;;;;;;7.75;3.17;;;5.20;99.90;;;;;;4995209;28;20038;-76
2023/04/04 09:06:46;;;;;;;5.55;2.83;;;5.40;99.90;;;;;;4960762;28;20042;-76
2023/04/04 09:09:11;;;;;;;5.90;2.40;;;5.50;99.90;;;;;;4997580;28;20450;-77
2023/04/04 09:11:38;;;;;;;9.50;2.78;;;5.70;99.90;;;;;;4976994;28;20120;-77
2023/04/04 09:14:04;;;;;;;8.82;2.53;;;6.50;99.90;;;;;;4977372;28;20041;-77
2023/04/04 09:16:30;;;;;;;7.65;2.65;;;6.40;99.90;;;;;;4977263;28;20038;-77
2023/04/04 09:18:56;;;;;;;5.68;2.45;;;6.20;99.90;;;;;;4977758;28;20093;-77
2023/04/04 09:21:21;;;;;;;6.75;2.55;;;6.40;99.90;;;;;;4964317;28;20077;-77
2023/04/04 09:23:56;;;;;;;4.72;2.13;;;7.10;99.90;;;;;;4994385;28;20050;-77
2023/04/04 09:26:22;;;;;;;4.18;2.00;;;7.20;99.90;;;;;;4994564;28;20505;-76
2023/04/04 09:28:52;;;;;;;4.13;2.28;;;8.40;99.90;;;;;;4962971;28;20040;-77
2023/04/04 09:31:17;;;;;;;5.10;1.90;;;7.30;99.90;;;;;;4971837;28;20461;-78
2023/04/04 09:33:43;;;;;;;4.38;2.25;;;7.40;99.90;;;;;;4976517;28;20038;-77
2023/04/04 09:36:11;;;;;;;8.55;2.00;;;8.10;99.90;;;;;;4960928;28;20407;-77
2023/04/04 09:38:39;;;;;;;7.10;2.42;;;7.90;99.90;;;;;;4982622;28;20081;-77
2023/04/04 09:41:09;;;;;;;5.22;2.00;;;8.00;99.90;;;;;;4959993;28;20047;-77
2023/04/04 09:43:36;;;;;;;5.90;1.80;;;8.20;99.90;;;;;;4976406;28;20061;-77
2023/04/04 09:46:02;;;;;;;6.60;2.28;;;8.40;99.90;;;;;;4962476;28;20031;-77
2023/04/04 09:48:33;;;;;;;3.97;1.80;;;9.80;99.90;;;;;;4976621;28;20042;-77
2023/04/04 09:51:02;;;;;;;4.25;2.05;;;8.80;99.90;;;;;;5001374;28;20043;-77
2023/04/04 09:53:28;;;;;;;5.20;2.40;;;9.10;99.90;;;;;;4976602;28;20549;-77
2023/04/04 09:55:55;;;;;;;3.55;1.98;;;9.60;99.90;;;;;;4976704;28;20038;-77
2023/04/04 09:58:26;;;;;;;4.47;1.90;;;10.50;99.90;;;;;;4960673;28;20046;-76
2023/04/04 10:00:55;;;;;;;4.70;2.30;;;9.90;98.70;;;;;;4976534;28;20469;-77
2023/04/04 10:03:22;;;;;;;6.53;2.47;;;10.70;98.70;;;;;;4960512;28;20049;-77
2023/04/04 10:05:56;;;;;;;5.75;2.20;;;10.30;98.30;;;;;;4965679;28;20499;-77
2023/04/04 10:08:22;;;;;;;5.55;2.20;;;10.30;97.70;;;;;;4961656;28;20069;-77
2023/04/04 10:10:49;;;;;;;6.15;2.00;;;10.50;98.50;;;;;;4961096;28;20042;-77
2023/04/04 10:13:24;;;;;;;6.82;2.45;;;11.30;97.80;;;;;;4960254;28;20085;-77
2023/04/04 10:15:58;;;;;;;8.77;2.50;;;10.90;96.80;;;;;;4975252;28;20117;-78
2023/04/04 10:18:29;;;;;;;9.25;2.72;;;11.20;96.50;;;;;;5000069;28;20498;-77
2023/04/04 10:20:56;;;;;;;5.65;2.67;;;11.90;95.80;;;;;;4963067;28;20113;-77
2023/04/04 10:23:25;;;;;;;6.05;2.67;;;12.00;95.60;;;;;;4965478;28;20035;-77
2023/04/04 10:25:54;;;;;;;7.22;2.65;;;11.70;94.40;;;;;;4975855;28;20038;-77
2023/04/04 10:28:21;;;;;;;5.88;2.65;;;11.50;94.20;;;;;;4968487;28;20038;-77
2023/04/04 10:31:04;;;;;;;4.25;2.58;;;11.50;93.50;;;;;;4994308;28;20050;-77
2023/04/04 10:33:59;;;;;;;5.55;2.38;;;11.60;93.10;;;;;;4983126;28;20081;-77
2023/04/04 10:36:30;;;;;;;4.38;2.47;;;11.60;92.10;;;;;;4971669;28;20407;-77
2023/04/04 10:39:12;;;;;;;6.68;2.60;;;12.00;92.10;;;;;;4999113;28;20045;-77
2023/04/04 10:41:39;;;;;;;5.78;2.83;;;11.80;91.30;;;;;;4975625;28;20053;-77
2023/04/04 10:44:17;;;;;;;6.68;2.53;;;11.90;91.40;;;;;;4959489;28;20150;-77
2023/04/04 10:46:46;;;;;;;16.10;3.10;;;12.00;90.40;;;;;;4961466;28;20057;-77
2023/04/04 10:49:13;;;;;;;5.45;2.33;;;12.10;90.60;;;;;;4975516;28;20034;-77
2023/04/04 10:51:40;;;;;;;5.55;2.42;;;12.10;90.10;;;;;;4992553;28;20229;-77
2023/04/04 10:54:06;;;;;;;4.60;2.60;;;12.20;90.20;;;;;;4992857;28;20407;-77
2023/04/04 10:56:33;;;;;;;8.02;3.20;;;11.70;89.60;;;;;;4960158;28;20042;-77
2023/04/04 10:59:12;;;;;;;6.82;2.80;;;12.90;90.00;;;;;;4975013;28;20287;-77
2023/04/04 11:01:54;;;;;;;7.07;2.72;;;12.40;87.20;;;;;;4974917;28;20070;-77
2023/04/04 11:04:27;;;;;;;7.00;2.75;;;12.60;87.30;;;;;;4993031;28;20034;-77
2023/04/04 11:07:12;;;;;;;5.32;2.70;;;12.70;89.10;;;;;;4959193;28;20048;-77
2023/04/04 11:09:59;;;;;;;7.32;2.75;;;12.90;84.90;;;;;;4977690;28;20042;-77
2023/04/04 11:12:30;;;;;;;5.55;2.70;;;13.20;85.70;;;;;;4996544;28;20042;-77
2023/04/04 11:14:56;;;;;;;6.65;2.60;;;13.20;84.40;;;;;;4974500;28;20038;-77
2023/04/04 11:17:48;;;;;;;5.57;2.58;;;13.20;85.40;;;;;;4971798;28;20038;-77
2023/04/04 11:20:16;;;;;;;5.00;2.60;;;13.00;80.90;;;;;;4988159;28;20483;-77
2023/04/04 11:22:42;;;;;;;6.93;2.45;;;13.00;84.10;;;;;;4996223;28;20038;-77
2023/04/04 11:25:26;;;;;;;5.43;2.50;;;13.10;82.80;;;;;;4958506;28;20114;-77
2023/04/04 11:27:56;;;;;;;5.05;2.50;;;13.10;82.70;;;;;;4972257;28;20417;-77
2023/04/04 11:30:21;;;;;;;5.85;2.70;;;13.20;83.40;;;;;;4974449;28;20117;-77
2023/04/04 11:32:48;;;;;;;6.63;3.05;;;13.80;83.30;;;;;;4958736;28;20125;-77
2023/04/04 11:35:14;;;;;;;5.75;2.70;;;14.30;83.40;;;;;;4958035;28;20038;-77
2023/04/04 11:37:54;;;;;;;7.65;2.85;;;13.20;82.20;;;;;;4974723;28;20073;-77
2023/04/04 11:40:38;;;;;;;6.55;3.20;;;13.00;78.10;;;;;;4958527;28;20482;-77
2023/04/04 11:43:11;;;;;;;4.93;2.70;;;12.90;80.80;;;;;;4970903;28;20595;-77
2023/04/04 11:45:43;;;;;;;4.95;2.75;;;13.20;82.50;;;;;;4993717;28;20719;-78
2023/04/04 11:48:09;;;;;;;;;;;12.90;82.00;;;;;;4958657;28;20065;-79
2023/04/04 11:50:39;;;;;;;5.60;2.78;;;13.20;81.00;;;;;;4974693;28;20389;-77
2023/04/04 11:53:07;;;;;;;5.88;2.83;;;13.10;82.90;;;;;;4991263;28;20132;-77
2023/04/04 11:55:38;;;;;;;5.80;2.60;;;13.20;81.80;;;;;;4975020;28;20071;-76
2023/04/04 11:58:11;;;;;;;5.82;2.55;;;13.20;80.60;;;;;;4972620;28;20490;-76
2023/04/04 12:00:38;;;;;;;4.68;2.72;;;13.40;79.70;;;;;;4985612;28;20042;-76
2023/04/04 12:03:10;;;;;;;6.57;2.53;;;13.20;80.30;;;;;;4971392;28;20047;-77
2023/04/04 12:05:36;;;;;;;;;;;13.10;78.60;;;;;;4954864;28;20046;-76
2023/04/04 12:08:03;;;;;;;5.70;3.00;;;13.10;76.00;;;;;;4958202;28;19917;-76
2023/04/04 12:10:32;;;;;;;6.47;2.85;;;13.10;79.30;;;;;;4976338;28;20034;-76
2023/04/04 12:12:58;;;;;;;6.78;3.17;;;13.20;78.70;;;;;;4957967;28;20390;-76
2023/04/04 12:15:27;;;;;;;6.72;2.72;;;13.20;78.20;;;;;;4974932;28;20038;-77
2023/04/04 12:17:52;;;;;;;4.70;2.67;;;13.20;78.00;;;;;;4958606;28;20086;-76
2023/04/04 12:20:22;;;;;;;4.28;2.70;;;13.20;78.30;;;;;;4956194;28;20131;-77
2023/04/04 12:22:49;;;;;;;6.10;2.90;;;13.30;78.90;;;;;;4987524;28;20528;-76
2023/04/04 12:25:15;;;;;;;8.38;2.80;;;13.30;79.30;;;;;;4974053;28;20399;-76
2023/04/04 12:27:41;;;;;;;6.38;2.92;;;13.30;78.40;;;;;;4975445;28;20053;-76
2023/04/04 12:30:14;;;;;;;4.10;2.50;;;13.40;77.90;;;;;;4977285;28;20026;-76
2023/04/04 12:32:41;;;;;;;6.65;2.80;;;13.40;77.60;;;;;;4977679;28;20054;-76
2023/04/04 12:35:11;;;;;;;7.20;3.20;;;13.40;77.80;;;;;;4991321;28;20069;-76
2023/04/04 12:37:36;;;;;;;5.47;3.00;;;14.20;77.40;;;;;;4957888;28;20046;-76
2023/04/04 12:40:03;;;;;;;4.90;2.53;;;13.80;77.50;;;;;;4976913;28;20073;-76
2023/04/04 12:42:30;;;;;;;5.25;3.05;;;13.40;76.80;;;;;;4981881;28;20038;-77
2023/04/04 12:44:56;;;;;;;6.90;2.72;;;13.50;77.40;;;;;;4963101;28;20058;-76
2023/04/04 12:47:23;;;;;;;5.43;2.95;;;13.70;77.00;;;;;;4978040;28;20031;-76
2023/04/04 12:49:53;;;;;;;4.57;2.55;;;14.40;77.20;;;;;;4975515;28;20053;-76
2023/04/04 12:52:30;;;;;;;5.13;2.38;;;13.60;74.70;;;;;;4971931;28;20054;-76
2023/04/04 12:55:05;;;;;;;6.78;2.60;;;13.60;75.00;;;;;;4966805;28;20050;-76